createdAt,value
2023-05-24T00:00:27.126Z,3.10
2023-05-24T00:02:55.168Z,2.60
2023-05-24T00:05:23.739Z,3.83
2023-05-24T00:07:51.329Z,2.92
2023-05-24T00:10:18.892Z,2.85
2023-05-24T00:12:46.438Z,3.10
2023-05-24T00:15:13.979Z,2.97
2023-05-24T00:17:42.890Z,2.60
2023-05-24T00:20:12.105Z,3.00
2023-05-24T00:22:40.151Z,2.63
2023-05-24T00:25:08.224Z,2.38
2023-05-24T00:27:37.392Z,2.78
2023-05-24T00:30:06.394Z,3.17
2023-05-24T00:32:34.241Z,2.63
2023-05-24T00:35:01.803Z,2.90
2023-05-24T00:37:29.777Z,2.65
2023-05-24T00:39:57.407Z,2.58
2023-05-24T00:42:25.026Z,2.65
2023-05-24T00:44:52.479Z,2.17
2023-05-24T00:47:20.244Z,2.33
2023-05-24T00:49:47.723Z,2.50
2023-05-24T00:52:15.724Z,2.70
2023-05-24T00:54:44.214Z,2.42
2023-05-24T00:57:14.157Z,2.85
2023-05-24T00:59:43.001Z,2.30
2023-05-24T01:02:10.676Z,3.17
2023-05-24T01:04:38.407Z,2.70
2023-05-24T01:07:26.965Z,2.72
2023-05-24T01:10:13.529Z,2.20
2023-05-24T01:12:51.065Z,2.33
2023-05-24T01:15:28.622Z,2.65
2023-05-24T01:18:14.238Z,2.17
2023-05-24T01:20:43.478Z,2.40
2023-05-24T01:24:10.064Z,1.88
2023-05-24T01:26:48.960Z,2.47
2023-05-24T01:29:16.973Z,2.17
2023-05-24T01:31:44.843Z,2.15
2023-05-24T01:34:12.546Z,3.28
2023-05-24T01:36:40.844Z,2.10
2023-05-24T01:39:08.466Z,2.67
2023-05-24T01:41:52.307Z,2.08
2023-05-24T01:44:38.202Z,3.05
2023-05-24T01:47:24.793Z,2.25
2023-05-24T01:49:57.511Z,2.47
2023-05-24T01:52:31.885Z,2.75
2023-05-24T01:55:01.299Z,2.10
2023-05-24T01:57:30.030Z,2.33
2023-05-24T01:59:59.626Z,2.33
2023-05-24T02:02:27.438Z,1.70
2023-05-24T02:04:55.123Z,2.65
2023-05-24T02:07:22.764Z,1.98
2023-05-24T02:09:50.527Z,1.98
2023-05-24T02:12:18.021Z,2.20
2023-05-24T02:14:45.581Z,2.28
2023-05-24T02:17:13.081Z,2.10
2023-05-24T02:19:41.243Z,1.85
2023-05-24T02:22:09.308Z,1.75
2023-05-24T02:24:37.956Z,2.10
2023-05-24T02:27:05.653Z,1.77
2023-05-24T02:29:33.227Z,1.70
2023-05-24T02:32:00.750Z,1.92
2023-05-24T02:34:28.320Z,1.63
2023-05-24T02:36:56.030Z,2.08
2023-05-24T02:39:23.462Z,2.05
2023-05-24T02:44:18.137Z,2.00
2023-05-24T02:49:13.902Z,1.77
2023-05-24T02:51:41.425Z,1.70
2023-05-24T02:54:08.989Z,1.60
2023-05-24T02:56:37.603Z,1.95
2023-05-24T02:59:05.194Z,2.08
2023-05-24T03:01:34.562Z,2.17
2023-05-24T03:04:03.551Z,1.73
2023-05-24T03:06:31.542Z,2.00
2023-05-24T03:08:59.390Z,1.70
2023-05-24T03:11:27.329Z,1.52
2023-05-24T03:13:54.801Z,2.13
2023-05-24T03:16:22.270Z,1.73
2023-05-24T03:18:55.425Z,1.75
2023-05-24T03:21:23.609Z,1.83
2023-05-24T03:23:51.213Z,2.13
2023-05-24T03:26:19.200Z,1.63
2023-05-24T03:28:47.729Z,2.30
2023-05-24T03:31:15.489Z,1.50
2023-05-24T03:33:42.941Z,1.58
2023-05-24T03:36:10.546Z,1.77
2023-05-24T03:38:38.542Z,1.55
2023-05-24T03:41:06.541Z,2.33
2023-05-24T03:43:34.948Z,1.63
2023-05-24T03:46:06.225Z,1.55
2023-05-24T03:48:33.748Z,1.90
2023-05-24T03:53:28.536Z,1.83
2023-05-24T03:55:56.191Z,1.65
2023-05-24T03:58:23.733Z,1.80
2023-05-24T04:00:51.739Z,1.77
2023-05-24T04:05:48.095Z,1.73
2023-05-24T04:08:16.562Z,2.17
2023-05-24T04:10:44.446Z,1.65
2023-05-24T04:13:12.862Z,1.55
2023-05-24T04:18:08.288Z,1.63
2023-05-24T04:20:36.047Z,1.10
2023-05-24T04:23:03.871Z,1.60
2023-05-24T04:25:33.508Z,2.00
2023-05-24T04:28:04.031Z,1.40
2023-05-24T04:30:33.149Z,2.00
2023-05-24T04:33:00.792Z,1.65
2023-05-24T04:35:30.363Z,1.70
2023-05-24T04:37:59.843Z,2.00
2023-05-24T04:40:27.341Z,1.63
2023-05-24T04:45:22.137Z,1.50
2023-05-24T04:47:49.777Z,1.40
2023-05-24T04:50:17.549Z,1.55
2023-05-24T04:52:45.172Z,1.83
2023-05-24T04:55:12.752Z,1.85
2023-05-24T04:57:40.152Z,1.40
2023-05-24T05:02:36.163Z,1.90
2023-05-24T05:05:03.929Z,1.42
2023-05-24T05:07:31.337Z,1.45
2023-05-24T05:09:58.849Z,1.45
2023-05-24T05:14:53.663Z,1.52
2023-05-24T05:17:21.896Z,1.60
2023-05-24T05:19:49.709Z,1.42
2023-05-24T05:22:17.527Z,1.40
2023-05-24T05:24:45.078Z,1.50
2023-05-24T05:27:12.530Z,1.50
2023-05-24T05:29:40.107Z,1.55
2023-05-24T05:32:07.636Z,1.83
2023-05-24T05:34:35.972Z,1.83
2023-05-24T05:37:03.387Z,1.35
2023-05-24T05:39:32.079Z,1.42
2023-05-24T05:42:00.162Z,1.40
2023-05-24T05:44:27.955Z,1.30
2023-05-24T05:46:55.977Z,1.70
2023-05-24T05:49:23.648Z,1.65
2023-05-24T05:51:53.042Z,1.65
2023-05-24T05:54:20.748Z,1.50
2023-05-24T05:56:48.337Z,1.33
2023-05-24T05:59:16.139Z,1.45
2023-05-24T06:01:47.181Z,1.02
2023-05-24T06:04:18.315Z,1.30
2023-05-24T06:06:49.607Z,1.38
2023-05-24T06:09:17.576Z,1.50
2023-05-24T06:11:45.206Z,1.00
2023-05-24T06:14:20.003Z,1.50
2023-05-24T06:16:48.262Z,1.85
2023-05-24T06:19:16.745Z,1.60
2023-05-24T06:21:50.213Z,1.30
2023-05-24T06:24:22.329Z,1.60
2023-05-24T06:26:52.965Z,1.38
2023-05-24T06:29:21.966Z,1.30
2023-05-24T06:31:49.939Z,1.60
2023-05-24T06:34:21.400Z,1.38
2023-05-24T06:36:51.316Z,1.42
2023-05-24T06:39:19.404Z,1.35
2023-05-24T06:41:47.464Z,1.17
2023-05-24T06:44:16.459Z,1.75
2023-05-24T06:46:44.328Z,1.58
2023-05-24T06:49:12.495Z,1.15
2023-05-24T06:51:40.253Z,1.70
2023-05-24T06:54:08.041Z,1.23
2023-05-24T06:56:35.772Z,1.45
2023-05-24T06:59:03.193Z,1.00
2023-05-24T07:01:30.745Z,1.02
2023-05-24T07:03:58.271Z,1.35
2023-05-24T07:06:25.866Z,1.38
2023-05-24T07:08:53.450Z,1.38
2023-05-24T07:11:21.147Z,0.82
2023-05-24T07:13:48.572Z,1.20
2023-05-24T07:16:16.172Z,1.05
2023-05-24T07:18:43.685Z,1.40
2023-05-24T07:21:11.190Z,0.77
2023-05-24T07:23:38.658Z,0.80
2023-05-24T07:26:06.232Z,0.88
2023-05-24T07:28:34.572Z,1.50
2023-05-24T07:31:02.681Z,1.33
2023-05-24T07:33:30.299Z,1.10
2023-05-24T07:35:58.797Z,1.20
2023-05-24T07:38:34.002Z,1.10
2023-05-24T07:43:51.211Z,1.20
2023-05-24T07:46:21.758Z,1.10
2023-05-24T07:48:51.829Z,1.25
2023-05-24T07:51:19.476Z,1.50
2023-05-24T07:53:47.372Z,1.02
2023-05-24T07:56:15.287Z,1.15
2023-05-24T07:58:45.693Z,1.13
2023-05-24T08:01:13.408Z,1.02
2023-05-24T08:03:41.127Z,1.23
2023-05-24T08:06:10.123Z,1.10
2023-05-24T08:08:37.679Z,0.93
2023-05-24T08:11:05.248Z,1.27
2023-05-24T08:13:32.756Z,1.50
2023-05-24T08:16:00.254Z,1.20
2023-05-24T08:18:27.945Z,1.05
2023-05-24T08:20:55.356Z,1.17
2023-05-24T08:23:23.013Z,1.15
2023-05-24T08:25:50.680Z,0.85
2023-05-24T08:28:18.430Z,1.27
2023-05-24T08:30:46.007Z,1.45
2023-05-24T08:33:14.281Z,1.42
2023-05-24T08:35:41.925Z,1.45
2023-05-24T08:38:09.976Z,1.40
2023-05-24T08:40:37.569Z,1.10
2023-05-24T08:43:11.918Z,1.15
2023-05-24T08:45:40.131Z,1.20
2023-05-24T08:48:08.570Z,1.42
2023-05-24T08:50:36.360Z,1.00
2023-05-24T08:53:07.203Z,1.10
2023-05-24T08:55:38.570Z,1.10
2023-05-24T08:58:06.895Z,1.08
2023-05-24T09:00:34.367Z,1.13
2023-05-24T09:03:02.182Z,1.17
2023-05-24T09:05:30.387Z,1.00
2023-05-24T09:08:01.127Z,1.05
2023-05-24T09:10:38.000Z,1.20
2023-05-24T09:13:16.032Z,1.30
2023-05-24T09:15:46.769Z,0.93
2023-05-24T09:18:14.438Z,1.30
2023-05-24T09:20:42.295Z,0.93
2023-05-24T09:23:11.251Z,1.30
2023-05-24T09:25:48.074Z,1.45
2023-05-24T09:28:17.827Z,1.20
2023-05-24T09:30:57.498Z,1.23
2023-05-24T09:33:30.661Z,1.05
2023-05-24T09:36:00.140Z,1.20
2023-05-24T09:38:28.335Z,1.00
2023-05-24T09:41:06.874Z,1.40
2023-05-24T09:43:46.831Z,1.00
2023-05-24T09:46:21.792Z,0.98
2023-05-24T09:49:11.027Z,1.10
2023-05-24T09:51:39.300Z,1.30
2023-05-24T09:54:06.915Z,1.25
2023-05-24T09:56:35.255Z,1.40
2023-05-24T09:59:10.032Z,1.25
2023-05-24T10:01:37.837Z,1.38
2023-05-24T10:04:10.216Z,1.35
2023-05-24T10:06:43.119Z,1.30
2023-05-24T10:09:11.596Z,1.15
2023-05-24T10:11:40.096Z,1.05
2023-05-24T10:14:09.984Z,1.00
2023-05-24T10:16:40.242Z,1.42
2023-05-24T10:19:07.805Z,1.42
2023-05-24T10:21:38.985Z,1.40
2023-05-24T10:24:10.039Z,1.70
2023-05-24T10:26:39.740Z,1.45
2023-05-24T10:29:13.648Z,1.17
2023-05-24T10:31:42.810Z,1.02
2023-05-24T10:34:10.867Z,1.27
2023-05-24T10:36:40.683Z,1.55
2023-05-24T10:39:11.410Z,1.40
2023-05-24T10:41:41.189Z,1.40
2023-05-24T10:44:16.417Z,1.20
2023-05-24T10:47:03.741Z,1.35
2023-05-24T10:49:31.507Z,1.05
2023-05-24T10:52:06.955Z,1.30
2023-05-24T10:54:36.023Z,1.10
2023-05-24T10:57:04.870Z,1.50
2023-05-24T10:59:38.077Z,1.60
2023-05-24T11:02:15.185Z,1.15
2023-05-24T11:04:46.583Z,1.17
2023-05-24T11:07:15.853Z,1.20
2023-05-24T11:09:46.935Z,1.08
2023-05-24T11:12:19.251Z,1.50
2023-05-24T11:14:52.452Z,1.30
2023-05-24T11:17:23.997Z,1.55
2023-05-24T11:19:53.918Z,1.80
2023-05-24T11:22:23.568Z,1.38
2023-05-24T11:24:53.340Z,1.25
2023-05-24T11:27:21.047Z,1.52
2023-05-24T11:29:49.252Z,1.10
2023-05-24T11:32:20.336Z,1.30
2023-05-24T11:34:49.156Z,1.92
2023-05-24T11:37:18.297Z,1.77
2023-05-24T11:39:52.994Z,1.30
2023-05-24T11:42:22.780Z,1.50
2023-05-24T11:44:50.660Z,1.80
2023-05-24T11:47:20.972Z,1.15
2023-05-24T11:49:52.167Z,1.40
2023-05-24T11:52:20.134Z,1.35
2023-05-24T11:54:48.605Z,1.17
2023-05-24T11:57:19.441Z,1.30
2023-05-24T11:59:47.049Z,1.38
2023-05-24T12:02:14.659Z,1.52
2023-05-24T12:04:42.208Z,1.60
2023-05-24T12:07:12.934Z,1.48
2023-05-24T12:09:40.531Z,1.75
2023-05-24T12:12:08.229Z,1.45
2023-05-24T12:14:36.379Z,1.80
2023-05-24T12:17:03.858Z,1.73
2023-05-24T12:19:35.286Z,2.63
2023-05-24T12:22:08.044Z,1.70
2023-05-24T12:24:37.648Z,1.70
2023-05-24T12:27:09.255Z,1.40
2023-05-24T12:29:40.066Z,1.40
2023-05-24T12:32:13.661Z,1.40
2023-05-24T12:34:43.267Z,1.50
2023-05-24T12:37:13.197Z,1.90
2023-05-24T12:39:43.948Z,1.63
2023-05-24T12:42:15.279Z,1.98
2023-05-24T12:44:43.109Z,1.33
2023-05-24T12:47:10.942Z,1.70
2023-05-24T12:49:39.114Z,1.80
2023-05-24T12:52:06.896Z,1.80
2023-05-24T12:54:34.762Z,1.48
2023-05-24T12:57:05.215Z,1.50
2023-05-24T12:59:33.880Z,2.25
2023-05-24T13:02:02.294Z,1.40
2023-05-24T13:04:31.890Z,1.80
2023-05-24T13:07:00.480Z,1.45
2023-05-24T13:09:28.256Z,1.77
2023-05-24T13:11:55.760Z,1.67
2023-05-24T13:14:23.484Z,1.85
2023-05-24T13:16:51.499Z,1.67
2023-05-24T13:19:19.168Z,1.70
2023-05-24T13:21:46.722Z,1.70
2023-05-24T13:24:17.534Z,1.95
2023-05-24T13:26:46.343Z,1.38
2023-05-24T13:31:45.017Z,2.00
2023-05-24T13:34:12.918Z,2.28
2023-05-24T13:36:40.616Z,2.17
2023-05-24T13:39:15.509Z,1.90
2023-05-24T13:41:45.032Z,1.85
2023-05-24T13:44:13.737Z,1.95
2023-05-24T13:46:41.997Z,2.80
2023-05-24T13:49:11.039Z,1.95
2023-05-24T13:51:39.325Z,2.42
2023-05-24T13:54:07.880Z,2.30
2023-05-24T13:56:36.668Z,2.22
2023-05-24T13:59:05.468Z,2.50
2023-05-24T14:01:34.302Z,2.60
2023-05-24T14:04:04.018Z,2.78
2023-05-24T14:06:32.933Z,2.70
2023-05-24T14:09:01.029Z,2.22
2023-05-24T14:11:31.758Z,2.63
2023-05-24T14:16:30.764Z,3.00
2023-05-24T14:18:58.371Z,2.25
2023-05-24T14:21:27.205Z,2.38
2023-05-24T14:23:55.115Z,2.35
2023-05-24T14:26:24.009Z,2.90
2023-05-24T14:28:54.380Z,2.45
2023-05-24T14:31:23.116Z,2.33
2023-05-24T14:33:50.904Z,2.17
2023-05-24T14:36:18.565Z,2.63
2023-05-24T14:38:46.752Z,2.25
2023-05-24T14:41:15.579Z,2.45
2023-05-24T14:43:43.080Z,2.45
2023-05-24T14:46:10.768Z,2.42
2023-05-24T14:48:41.451Z,2.58
2023-05-24T14:51:09.306Z,2.50
2023-05-24T14:53:36.987Z,2.70
2023-05-24T14:56:06.373Z,2.10
2023-05-24T14:58:34.127Z,2.60
2023-05-24T15:01:02.953Z,2.50
2023-05-24T15:03:30.592Z,2.67
2023-05-24T15:05:58.499Z,2.60
2023-05-24T15:08:26.226Z,3.05
2023-05-24T15:10:53.853Z,2.25
2023-05-24T15:13:23.093Z,2.45
2023-05-24T15:15:50.591Z,2.50
2023-05-24T15:18:18.061Z,2.40
2023-05-24T15:20:45.861Z,2.35
2023-05-24T15:23:13.579Z,2.53
2023-05-24T15:25:42.890Z,2.40
2023-05-24T15:28:12.951Z,2.22
2023-05-24T15:30:44.567Z,2.20
2023-05-24T15:33:13.430Z,2.20
2023-05-24T15:35:41.546Z,2.38
2023-05-24T15:38:09.121Z,2.28
2023-05-24T15:40:38.576Z,2.40
2023-05-24T15:43:06.758Z,2.33
2023-05-24T15:45:34.282Z,2.25
2023-05-24T15:48:04.623Z,2.50
2023-05-24T15:50:54.047Z,2.35
2023-05-24T15:53:23.019Z,2.25
2023-05-24T15:55:50.414Z,2.50
2023-05-24T15:58:18.520Z,2.30
2023-05-24T16:00:46.214Z,2.25
2023-05-24T16:03:15.911Z,2.60
2023-05-24T16:05:43.867Z,2.55
2023-05-24T16:08:11.495Z,2.70
2023-05-24T16:10:38.966Z,2.58
2023-05-24T16:13:06.748Z,2.42
2023-05-24T16:15:36.135Z,2.70
2023-05-24T16:18:10.738Z,3.08
2023-05-24T16:20:38.653Z,2.78
2023-05-24T16:23:06.214Z,2.40
2023-05-24T16:25:33.688Z,2.53
2023-05-24T16:28:01.247Z,3.13
2023-05-24T16:30:29.267Z,2.60
2023-05-24T16:32:56.993Z,3.03
2023-05-24T16:35:24.888Z,2.88
2023-05-24T16:37:52.343Z,3.40
2023-05-24T16:40:19.943Z,3.13
2023-05-24T16:42:48.480Z,2.90
2023-05-24T16:45:16.249Z,3.75
2023-05-24T16:47:43.838Z,2.70
2023-05-24T16:50:15.150Z,2.95
2023-05-24T16:52:43.173Z,3.42
2023-05-24T16:55:16.070Z,3.42
2023-05-24T16:57:43.544Z,3.20
2023-05-24T17:00:11.774Z,2.58
2023-05-24T17:02:39.398Z,2.85
2023-05-24T17:05:07.322Z,3.00
2023-05-24T17:07:34.980Z,3.22
2023-05-24T17:10:02.575Z,2.85
2023-05-24T17:12:30.257Z,3.10
2023-05-24T17:14:57.717Z,2.85
2023-05-24T17:17:25.373Z,3.10
2023-05-24T17:19:53.168Z,3.17
2023-05-24T17:22:21.469Z,2.97
2023-05-24T17:24:49.023Z,3.33
2023-05-24T17:27:19.880Z,3.63
2023-05-24T17:29:49.615Z,3.40
2023-05-24T17:32:17.173Z,3.65
2023-05-24T17:34:44.656Z,3.63
2023-05-24T17:37:12.093Z,3.47
2023-05-24T17:39:39.673Z,3.22
2023-05-24T17:42:07.464Z,3.53
2023-05-24T17:44:35.257Z,3.08
2023-05-24T17:47:02.768Z,3.47
2023-05-24T17:49:30.432Z,2.95
2023-05-24T17:52:00.866Z,3.50
2023-05-24T17:54:28.682Z,3.25
2023-05-24T17:56:56.798Z,4.00
2023-05-24T17:59:24.236Z,3.40
2023-05-24T18:01:51.856Z,3.42
2023-05-24T18:04:19.958Z,3.75
2023-05-24T18:06:47.403Z,3.55
2023-05-24T18:09:16.283Z,3.92
2023-05-24T18:11:43.810Z,3.80
2023-05-24T18:14:11.618Z,3.58
2023-05-24T18:16:39.228Z,3.22
2023-05-24T18:19:06.973Z,3.88
2023-05-24T18:21:34.541Z,3.67
2023-05-24T18:24:02.062Z,3.83
2023-05-24T18:26:29.438Z,3.30
2023-05-24T18:28:56.951Z,3.65
2023-05-24T18:31:24.538Z,3.88
2023-05-24T18:33:52.152Z,3.78
2023-05-24T18:36:19.664Z,4.05
2023-05-24T18:38:47.497Z,3.97
2023-05-24T18:41:16.562Z,3.92
2023-05-24T18:43:44.280Z,3.60
2023-05-24T18:46:15.159Z,3.88
2023-05-24T18:48:43.285Z,3.95
2023-05-24T18:51:11.677Z,4.00
2023-05-24T18:53:40.199Z,3.90
2023-05-24T18:56:07.666Z,3.55
2023-05-24T18:58:35.164Z,4.18
2023-05-24T19:01:02.762Z,3.88
2023-05-24T19:03:30.615Z,3.40
2023-05-24T19:05:58.077Z,3.95
2023-05-24T19:08:25.647Z,4.05
2023-05-24T19:10:53.106Z,3.58
2023-05-24T19:13:20.780Z,3.75
2023-05-24T19:15:48.454Z,3.95
2023-05-24T19:18:16.006Z,4.20
2023-05-24T19:20:43.543Z,4.05
2023-05-24T19:23:11.108Z,3.88
2023-05-24T19:25:42.167Z,3.63
2023-05-24T19:28:11.202Z,3.80
2023-05-24T19:30:38.685Z,3.50
2023-05-24T19:33:07.501Z,4.03
2023-05-24T19:35:35.240Z,3.63
2023-05-24T19:38:02.879Z,3.65
2023-05-24T19:40:30.503Z,4.00
2023-05-24T19:42:58.085Z,4.28
2023-05-24T19:45:25.793Z,4.00
2023-05-24T19:47:53.353Z,4.20
2023-05-24T19:50:20.824Z,4.15
2023-05-24T19:52:48.296Z,4.30
2023-05-24T19:55:15.752Z,4.10
2023-05-24T19:57:43.319Z,4.30
2023-05-24T20:00:12.504Z,3.90
2023-05-24T20:02:40.166Z,4.50
2023-05-24T20:05:09.054Z,4.72
2023-05-24T20:07:36.851Z,3.97
2023-05-24T20:10:05.624Z,4.30
2023-05-24T20:12:34.726Z,3.70
2023-05-24T20:15:02.772Z,4.15
2023-05-24T20:17:30.367Z,4.43
2023-05-24T20:19:57.898Z,3.88
2023-05-24T20:22:25.488Z,4.10
2023-05-24T20:24:52.904Z,4.35
2023-05-24T20:27:20.514Z,4.00
2023-05-24T20:29:48.422Z,3.97
2023-05-24T20:32:16.453Z,4.30
2023-05-24T20:34:43.920Z,3.70
2023-05-24T20:37:11.490Z,4.55
2023-05-24T20:39:38.935Z,3.70
2023-05-24T20:42:08.278Z,3.63
2023-05-24T20:44:35.928Z,4.43
2023-05-24T20:47:03.536Z,4.10
2023-05-24T20:49:31.026Z,4.28
2023-05-24T20:51:58.619Z,4.93
2023-05-24T20:54:26.213Z,4.13
2023-05-24T20:56:53.722Z,3.85
2023-05-24T20:59:21.194Z,3.85
2023-05-24T21:01:48.862Z,4.03
2023-05-24T21:04:16.412Z,4.93
2023-05-24T21:06:43.941Z,4.68
2023-05-24T21:09:11.642Z,4.57
2023-05-24T21:11:39.577Z,4.20
2023-05-24T21:14:07.009Z,4.55
2023-05-24T21:16:34.736Z,4.50
2023-05-24T21:19:02.407Z,4.18
2023-05-24T21:21:29.958Z,4.72
2023-05-24T21:23:57.964Z,4.07
2023-05-24T21:26:35.018Z,3.80
2023-05-24T21:29:05.688Z,4.35
2023-05-24T21:31:37.700Z,4.28
2023-05-24T21:34:06.440Z,4.45
2023-05-24T21:36:33.919Z,5.05
2023-05-24T21:39:03.980Z,4.55
2023-05-24T21:41:31.470Z,4.32
2023-05-24T21:43:58.961Z,5.30
2023-05-24T21:46:29.233Z,4.72
2023-05-24T21:48:59.551Z,4.40
2023-05-24T21:51:27.191Z,4.63
2023-05-24T21:53:54.753Z,4.18
2023-05-24T21:56:22.628Z,4.78
2023-05-24T21:58:50.117Z,5.00
2023-05-24T22:01:17.793Z,4.85
2023-05-24T22:03:45.366Z,5.07
2023-05-24T22:06:13.055Z,4.38
2023-05-24T22:08:40.696Z,4.30
2023-05-24T22:11:08.230Z,4.32
2023-05-24T22:13:35.722Z,5.32
2023-05-24T22:16:03.383Z,4.72
2023-05-24T22:18:30.882Z,4.68
2023-05-24T22:20:58.459Z,5.10
2023-05-24T22:23:26.612Z,4.85
2023-05-24T22:25:54.454Z,4.93
2023-05-24T22:28:21.961Z,4.72
2023-05-24T22:30:49.577Z,4.97
2023-05-24T22:33:17.106Z,4.95
2023-05-24T22:35:44.796Z,4.68
2023-05-24T22:38:12.711Z,4.80
2023-05-24T22:40:42.268Z,4.72
2023-05-24T22:43:09.877Z,4.88
2023-05-24T22:45:37.465Z,4.45
2023-05-24T22:48:05.076Z,4.68
2023-05-24T22:50:32.782Z,4.95
2023-05-24T22:53:00.239Z,3.90
2023-05-24T22:55:27.839Z,4.45
2023-05-24T22:57:55.269Z,4.85
2023-05-24T23:00:22.991Z,4.50
2023-05-24T23:02:50.587Z,4.45
2023-05-24T23:05:21.640Z,3.60
2023-05-24T23:07:49.536Z,3.90
2023-05-24T23:10:17.039Z,4.57
2023-05-24T23:12:44.677Z,4.45
2023-05-24T23:15:16.853Z,4.70
2023-05-24T23:17:44.767Z,4.28
2023-05-24T23:20:14.703Z,4.13
2023-05-24T23:22:42.348Z,4.32
2023-05-24T23:25:10.409Z,4.20
2023-05-24T23:27:38.043Z,4.13
2023-05-24T23:30:06.972Z,4.00
2023-05-24T23:32:34.496Z,4.35
2023-05-24T23:35:01.915Z,3.58
2023-05-24T23:37:29.400Z,4.30
2023-05-24T23:40:02.231Z,3.75
2023-05-24T23:42:30.065Z,3.88
2023-05-24T23:44:57.585Z,4.20
2023-05-24T23:47:25.546Z,3.65
2023-05-24T23:49:53.057Z,4.30
2023-05-24T23:52:20.742Z,4.03
2023-05-24T23:54:48.335Z,4.28
2023-05-24T23:57:15.861Z,3.88
2023-05-24T23:59:43.729Z,4.10
